createdAt,value
2022-12-31T00:02:17.793Z,15.70
2022-12-31T00:04:44.407Z,10.77
2022-12-31T00:07:10.924Z,10.82
2022-12-31T00:09:37.412Z,12.52
2022-12-31T00:12:04.042Z,17.13
2022-12-31T00:14:30.540Z,11.05
2022-12-31T00:16:57.097Z,11.38
2022-12-31T00:19:23.653Z,12.85
2022-12-31T00:21:50.163Z,10.48
2022-12-31T00:24:16.614Z,10.50
2022-12-31T00:26:43.153Z,11.10
2022-12-31T00:29:10.018Z,12.55
2022-12-31T00:31:38.094Z,8.07
2022-12-31T00:34:06.645Z,4.47
2022-12-31T00:36:35.959Z,6.43
2022-12-31T00:39:04.073Z,7.18
2022-12-31T00:41:31.218Z,5.80
2022-12-31T00:43:57.930Z,4.85
2022-12-31T00:46:25.053Z,5.72
2022-12-31T00:48:51.636Z,6.27
2022-12-31T00:51:20.925Z,5.18
2022-12-31T00:53:47.511Z,4.65
2022-12-31T00:56:16.910Z,4.90
2022-12-31T00:58:43.731Z,3.92
2022-12-31T01:01:12.646Z,4.27
2022-12-31T01:03:39.259Z,5.90
2022-12-31T01:06:06.675Z,4.25
2022-12-31T01:08:33.492Z,3.65
2022-12-31T01:11:18.879Z,5.57
2022-12-31T01:13:46.941Z,3.67
2022-12-31T01:16:14.409Z,5.57
2022-12-31T01:18:40.989Z,3.30
2022-12-31T01:21:09.556Z,4.57
2022-12-31T01:23:36.445Z,4.20
2022-12-31T01:26:06.075Z,3.93
2022-12-31T01:28:32.795Z,3.58
2022-12-31T01:30:59.389Z,3.63
2022-12-31T01:33:25.888Z,3.42
2022-12-31T01:35:52.344Z,4.13
2022-12-31T01:38:18.791Z,4.07
2022-12-31T01:40:45.374Z,3.92
2022-12-31T01:43:17.838Z,3.85
2022-12-31T01:45:47.950Z,3.00
2022-12-31T01:48:18.505Z,4.60
2022-12-31T01:50:46.826Z,6.07
2022-12-31T01:53:14.411Z,3.80
2022-12-31T01:55:52.614Z,3.90
2022-12-31T01:58:23.909Z,4.05
2022-12-31T02:00:51.828Z,3.15
2022-12-31T02:03:21.411Z,2.97
2022-12-31T02:05:56.931Z,2.00
2022-12-31T02:08:23.669Z,3.03
2022-12-31T02:10:50.218Z,3.47
2022-12-31T02:13:16.818Z,3.25
2022-12-31T02:16:11.903Z,3.67
2022-12-31T02:18:58.023Z,2.53
2022-12-31T02:22:14.693Z,2.53
2022-12-31T02:24:51.977Z,2.40
2022-12-31T02:27:41.162Z,3.50
2022-12-31T02:30:15.323Z,3.43
2022-12-31T02:32:50.571Z,3.72
2022-12-31T02:35:26.720Z,4.70
2022-12-31T02:37:58.901Z,4.15
2022-12-31T02:40:25.724Z,5.40
2022-12-31T02:42:55.624Z,6.13
2022-12-31T02:45:29.528Z,5.60
2022-12-31T02:48:07.625Z,5.75
2022-12-31T02:50:55.476Z,5.95
2022-12-31T02:53:48.866Z,5.40
2022-12-31T02:56:18.384Z,7.90
2022-12-31T02:59:25.031Z,6.65
2022-12-31T03:02:16.834Z,5.45
2022-12-31T03:04:52.741Z,5.25
2022-12-31T03:07:23.231Z,7.47
2022-12-31T03:09:50.080Z,5.33
2022-12-31T03:12:37.295Z,5.72
2022-12-31T03:15:06.591Z,6.25
2022-12-31T03:17:34.481Z,9.00
2022-12-31T03:20:19.504Z,5.57
2022-12-31T03:22:47.637Z,5.37
2022-12-31T03:25:35.766Z,6.53
2022-12-31T03:28:08.417Z,5.97
2022-12-31T03:30:36.382Z,7.85
2022-12-31T03:33:04.046Z,7.68
2022-12-31T03:35:33.039Z,6.33
2022-12-31T03:37:59.717Z,8.40
2022-12-31T03:40:28.367Z,7.38
2022-12-31T03:42:54.929Z,6.93
2022-12-31T03:45:22.085Z,8.45
2022-12-31T03:47:49.201Z,8.73
2022-12-31T03:50:17.639Z,10.30
2022-12-31T03:52:44.726Z,10.55
2022-12-31T03:55:12.457Z,10.20
2022-12-31T03:57:39.327Z,8.65
2022-12-31T04:00:07.819Z,10.07
2022-12-31T04:02:34.486Z,8.20
2022-12-31T04:05:01.231Z,8.85
2022-12-31T04:07:27.731Z,6.75
2022-12-31T04:09:54.254Z,6.90
2022-12-31T04:12:20.778Z,5.57
2022-12-31T04:14:47.271Z,4.47
2022-12-31T04:17:13.799Z,6.20
2022-12-31T04:19:40.338Z,4.10
2022-12-31T04:22:07.054Z,4.82
2022-12-31T04:24:33.582Z,4.70
2022-12-31T04:27:07.080Z,6.55
2022-12-31T04:29:34.624Z,5.32
2022-12-31T04:32:01.404Z,8.10
2022-12-31T04:34:28.065Z,5.28
2022-12-31T04:36:54.598Z,7.50
2022-12-31T04:39:21.185Z,3.83
2022-12-31T04:41:47.802Z,4.07
2022-12-31T04:44:14.345Z,1.88
2022-12-31T04:46:40.988Z,3.67
2022-12-31T04:49:07.678Z,6.60
2022-12-31T04:51:34.314Z,2.22
2022-12-31T04:54:01.037Z,2.60
2022-12-31T04:56:28.313Z,5.72
2022-12-31T04:58:54.997Z,3.10
2022-12-31T05:01:22.302Z,3.23
2022-12-31T05:03:48.999Z,2.88
2022-12-31T05:06:18.323Z,5.47
2022-12-31T05:08:45.060Z,2.72
2022-12-31T05:11:11.812Z,2.55
2022-12-31T05:13:38.799Z,5.20
2022-12-31T05:16:06.179Z,4.88
2022-12-31T05:18:33.576Z,5.00
2022-12-31T05:21:00.405Z,5.07
2022-12-31T05:23:27.379Z,7.03
2022-12-31T05:25:54.059Z,7.53
2022-12-31T05:28:20.614Z,7.25
2022-12-31T05:30:50.976Z,6.95
2022-12-31T05:33:18.748Z,7.15
2022-12-31T05:35:45.810Z,7.22
2022-12-31T05:38:12.310Z,7.63
2022-12-31T05:40:38.826Z,10.82
2022-12-31T05:43:05.493Z,9.18
2022-12-31T05:45:32.054Z,9.32
2022-12-31T05:47:58.625Z,7.38
2022-12-31T05:50:25.374Z,8.60
2022-12-31T05:52:56.089Z,9.18
2022-12-31T05:55:22.867Z,12.77
2022-12-31T05:57:49.411Z,9.10
2022-12-31T06:00:16.243Z,9.82
2022-12-31T06:02:42.804Z,9.23
2022-12-31T06:05:09.775Z,10.85
2022-12-31T06:07:36.298Z,9.13
2022-12-31T06:10:04.484Z,6.97
2022-12-31T06:12:30.993Z,9.10
2022-12-31T06:14:57.571Z,6.17
2022-12-31T06:17:24.127Z,3.97
2022-12-31T06:19:50.670Z,4.95
2022-12-31T06:22:17.219Z,3.53
2022-12-31T06:24:43.799Z,2.30
2022-12-31T06:27:10.339Z,2.03
2022-12-31T06:29:36.903Z,3.05
2022-12-31T06:32:03.935Z,1.98
2022-12-31T06:34:30.657Z,1.98
2022-12-31T06:36:57.675Z,2.00
2022-12-31T06:39:24.183Z,2.73
2022-12-31T06:41:50.645Z,2.35
2022-12-31T06:44:17.158Z,2.33
2022-12-31T06:46:43.865Z,1.95
2022-12-31T06:49:10.493Z,2.13
2022-12-31T06:51:36.981Z,2.40
2022-12-31T06:54:03.649Z,2.60
2022-12-31T06:56:34.489Z,3.85
2022-12-31T06:59:02.315Z,3.30
2022-12-31T07:01:37.298Z,3.50
2022-12-31T07:04:39.107Z,6.13
2022-12-31T07:07:12.140Z,4.60
2022-12-31T07:10:02.996Z,5.13
2022-12-31T07:12:42.789Z,5.60
2022-12-31T07:15:24.610Z,6.43
2022-12-31T07:18:10.244Z,7.03
2022-12-31T07:20:37.069Z,7.82
2022-12-31T07:23:03.792Z,6.68
2022-12-31T07:25:30.578Z,7.20
2022-12-31T07:28:20.313Z,5.65
2022-12-31T07:31:11.727Z,6.27
2022-12-31T07:33:51.508Z,4.28
2022-12-31T07:36:55.725Z,5.80
2022-12-31T07:39:47.545Z,3.30
2022-12-31T07:42:42.289Z,2.60
2022-12-31T07:45:24.111Z,3.63
2022-12-31T07:47:51.065Z,2.60
2022-12-31T07:50:18.756Z,1.60
2022-12-31T07:52:45.968Z,1.83
2022-12-31T07:55:12.766Z,3.05
2022-12-31T07:57:48.475Z,3.07
2022-12-31T08:00:16.192Z,1.63
2022-12-31T08:03:01.823Z,2.45
2022-12-31T08:05:39.778Z,3.05
2022-12-31T08:08:24.355Z,2.47
2022-12-31T08:11:09.359Z,3.23
2022-12-31T08:13:35.940Z,2.25
2022-12-31T08:16:03.188Z,2.42
2022-12-31T08:18:29.915Z,1.10
2022-12-31T08:21:31.094Z,0.80
2022-12-31T08:24:14.053Z,1.47
2022-12-31T08:27:11.459Z,1.20
2022-12-31T08:30:14.898Z,2.13
2022-12-31T08:33:03.531Z,2.55
2022-12-31T08:35:58.143Z,1.15
2022-12-31T08:38:27.576Z,1.50
2022-12-31T08:41:15.347Z,1.95
2022-12-31T08:43:41.858Z,2.20
2022-12-31T08:46:19.426Z,2.63
2022-12-31T08:48:47.840Z,1.67
2022-12-31T08:51:19.457Z,2.17
2022-12-31T08:53:48.198Z,1.10
2022-12-31T08:56:29.862Z,3.72
2022-12-31T08:59:05.442Z,1.30
2022-12-31T09:01:46.065Z,1.40
2022-12-31T09:04:25.023Z,2.00
2022-12-31T09:06:56.304Z,1.70
2022-12-31T09:09:38.507Z,2.63
2022-12-31T09:12:41.751Z,3.20
2022-12-31T09:15:15.176Z,3.35
2022-12-31T09:17:47.287Z,2.50
2022-12-31T09:20:23.469Z,2.10
2022-12-31T09:22:50.762Z,2.58
2022-12-31T09:25:19.849Z,1.60
2022-12-31T09:27:55.532Z,2.13
2022-12-31T09:30:22.240Z,2.07
2022-12-31T09:33:22.811Z,2.22
2022-12-31T09:36:01.106Z,1.58
2022-12-31T09:38:52.525Z,2.00
2022-12-31T09:41:32.608Z,2.25
2022-12-31T09:44:36.661Z,2.77
2022-12-31T09:47:21.541Z,2.83
2022-12-31T09:50:22.891Z,2.65
2022-12-31T09:53:13.299Z,5.22
2022-12-31T09:56:04.124Z,4.00
2022-12-31T09:58:41.914Z,4.77
2022-12-31T10:01:28.122Z,2.85
2022-12-31T10:04:13.606Z,6.00
2022-12-31T10:06:52.479Z,5.00
2022-12-31T10:09:40.830Z,4.03
2022-12-31T10:12:13.328Z,3.30
2022-12-31T10:15:06.487Z,3.80
2022-12-31T10:17:58.893Z,5.20
2022-12-31T10:20:45.299Z,7.32
2022-12-31T10:23:41.793Z,3.28
2022-12-31T10:26:41.605Z,3.07
2022-12-31T10:29:49.824Z,4.70
2022-12-31T10:32:31.181Z,3.92
2022-12-31T10:35:18.659Z,4.88
2022-12-31T10:38:07.462Z,2.72
2022-12-31T10:40:52.844Z,3.97
2022-12-31T10:43:40.618Z,4.25
2022-12-31T10:46:22.456Z,3.92
2022-12-31T10:48:58.263Z,4.70
2022-12-31T10:51:43.144Z,4.40
2022-12-31T10:54:27.718Z,4.63
2022-12-31T10:57:49.600Z,3.92
2022-12-31T11:00:18.157Z,5.13
2022-12-31T11:03:09.228Z,3.67
2022-12-31T11:05:48.734Z,5.72
2022-12-31T11:08:52.796Z,5.70
2022-12-31T11:11:25.401Z,4.43
2022-12-31T11:14:07.381Z,4.63
2022-12-31T11:16:53.310Z,5.68
2022-12-31T11:19:44.473Z,5.15
2022-12-31T11:22:38.353Z,3.80
2022-12-31T11:25:10.986Z,5.35
2022-12-31T11:27:49.747Z,5.90
2022-12-31T11:30:24.426Z,6.50
2022-12-31T11:33:06.816Z,4.13
2022-12-31T11:35:55.303Z,6.80
2022-12-31T11:38:28.165Z,5.97
2022-12-31T11:41:42.598Z,4.57
2022-12-31T11:44:44.756Z,4.47
2022-12-31T11:47:29.866Z,4.53
2022-12-31T11:50:25.773Z,5.57
2022-12-31T11:53:19.057Z,6.43
2022-12-31T11:56:09.423Z,5.28
2022-12-31T11:58:35.979Z,6.30
2022-12-31T12:01:11.571Z,7.63
2022-12-31T12:03:43.137Z,7.83
2022-12-31T12:06:15.235Z,5.88
2022-12-31T12:08:42.299Z,7.70
2022-12-31T12:11:20.471Z,7.03
2022-12-31T12:13:47.550Z,6.88
2022-12-31T12:16:14.948Z,5.57
2022-12-31T12:19:05.972Z,5.43
2022-12-31T12:21:34.030Z,6.63
2022-12-31T12:24:17.066Z,6.93
2022-12-31T12:26:47.245Z,4.72
2022-12-31T12:29:15.223Z,5.80
2022-12-31T12:31:42.775Z,9.45
2022-12-31T12:34:25.366Z,6.18
2022-12-31T12:36:51.898Z,6.72
2022-12-31T12:39:25.572Z,6.38
2022-12-31T12:42:07.466Z,3.50
2022-12-31T12:44:35.791Z,5.10
2022-12-31T12:47:04.937Z,6.15
2022-12-31T12:49:40.672Z,6.38
2022-12-31T12:52:32.778Z,8.88
2022-12-31T12:55:21.108Z,6.03
2022-12-31T12:58:07.250Z,5.55
2022-12-31T13:00:43.012Z,7.40
2022-12-31T13:03:22.250Z,5.30
2022-12-31T13:06:10.283Z,5.25
2022-12-31T13:08:58.601Z,6.93
2022-12-31T13:11:52.694Z,4.65
2022-12-31T13:14:27.865Z,6.15
2022-12-31T13:17:32.058Z,8.00
2022-12-31T13:20:30.756Z,5.72
2022-12-31T13:23:00.808Z,7.57
2022-12-31T13:26:06.843Z,6.80
2022-12-31T13:28:34.245Z,5.28
2022-12-31T13:31:12.633Z,6.55
2022-12-31T13:33:51.304Z,7.93
2022-12-31T13:36:21.511Z,6.23
2022-12-31T13:38:59.144Z,7.30
2022-12-31T13:41:25.579Z,5.25
2022-12-31T13:44:19.257Z,4.97
2022-12-31T13:46:52.417Z,9.52
2022-12-31T13:49:20.851Z,7.23
2022-12-31T13:51:53.087Z,6.45
2022-12-31T13:54:42.811Z,5.20
2022-12-31T13:57:23.294Z,6.18
2022-12-31T13:59:58.370Z,5.40
2022-12-31T14:02:44.864Z,5.37
2022-12-31T14:05:11.405Z,5.72
2022-12-31T14:07:51.320Z,6.72
2022-12-31T14:10:25.338Z,5.40
2022-12-31T14:13:16.449Z,5.03
2022-12-31T14:16:14.232Z,6.07
2022-12-31T14:18:56.930Z,6.35
2022-12-31T14:21:32.472Z,5.03
2022-12-31T14:24:32.923Z,7.32
2022-12-31T14:27:05.080Z,6.50
2022-12-31T14:29:39.698Z,5.83
2022-12-31T14:32:11.978Z,7.78
2022-12-31T14:35:06.518Z,5.15
2022-12-31T14:37:42.342Z,5.38
2022-12-31T14:40:24.159Z,9.80
2022-12-31T14:42:54.056Z,5.63
2022-12-31T14:46:10.247Z,6.97
2022-12-31T14:48:57.741Z,4.18
2022-12-31T14:51:30.043Z,6.60
2022-12-31T14:53:58.013Z,7.28
2022-12-31T14:56:36.993Z,10.20
2022-12-31T14:59:03.899Z,8.35
2022-12-31T15:01:30.531Z,8.13
2022-12-31T15:03:58.201Z,6.85
2022-12-31T15:06:57.282Z,6.25
2022-12-31T15:09:35.461Z,7.27
2022-12-31T15:12:16.941Z,11.85
2022-12-31T15:15:02.576Z,9.63
2022-12-31T15:17:38.081Z,10.00
2022-12-31T15:20:14.939Z,10.02
2022-12-31T15:22:48.166Z,7.37
2022-12-31T15:25:40.278Z,7.30
2022-12-31T15:28:22.841Z,11.38
2022-12-31T15:30:50.544Z,11.02
2022-12-31T15:33:37.876Z,8.73
2022-12-31T15:36:17.894Z,10.30
2022-12-31T15:38:45.365Z,12.48
2022-12-31T15:41:38.450Z,9.73
2022-12-31T15:44:24.897Z,9.25
2022-12-31T15:47:04.385Z,20.40
2022-12-31T15:49:38.539Z,9.00
2022-12-31T15:52:12.865Z,8.55
2022-12-31T15:54:43.565Z,10.30
2022-12-31T15:57:19.516Z,13.80
2022-12-31T15:59:46.893Z,12.30
2022-12-31T16:02:24.765Z,9.40
2022-12-31T16:04:52.723Z,13.73
2022-12-31T16:07:19.622Z,12.18
2022-12-31T16:10:05.236Z,8.65
2022-12-31T16:12:40.814Z,9.80
2022-12-31T16:15:21.341Z,10.07
2022-12-31T16:17:59.242Z,12.35
2022-12-31T16:20:32.676Z,12.05
2022-12-31T16:23:02.595Z,11.73
2022-12-31T16:25:32.532Z,7.03
2022-12-31T16:28:01.943Z,12.10
2022-12-31T16:30:31.226Z,12.32
2022-12-31T16:33:04.155Z,11.25
2022-12-31T16:35:38.909Z,8.07
2022-12-31T16:38:17.170Z,9.70
2022-12-31T16:41:06.006Z,10.70
2022-12-31T16:43:43.202Z,7.97
2022-12-31T16:46:17.035Z,9.82
2022-12-31T16:48:49.723Z,12.32
2022-12-31T16:51:21.146Z,11.90
2022-12-31T16:53:48.537Z,11.63
2022-12-31T16:56:24.078Z,13.00
2022-12-31T16:58:55.979Z,11.05
2022-12-31T17:01:29.907Z,11.52
2022-12-31T17:04:00.143Z,11.32
2022-12-31T17:06:28.390Z,9.93
2022-12-31T17:09:00.800Z,11.23
2022-12-31T17:11:35.466Z,9.30
2022-12-31T17:14:10.970Z,12.23
2022-12-31T17:17:03.088Z,16.27
2022-12-31T17:19:44.969Z,12.07
2022-12-31T17:22:32.977Z,10.43
2022-12-31T17:25:08.657Z,9.15
2022-12-31T17:27:36.690Z,9.18
2022-12-31T17:30:35.099Z,8.48
2022-12-31T17:33:04.776Z,10.33
2022-12-31T17:35:34.171Z,11.65
2022-12-31T17:38:23.451Z,10.82
2022-12-31T17:40:59.858Z,15.85
2022-12-31T17:43:33.043Z,17.70
2022-12-31T17:46:03.004Z,11.33
2022-12-31T17:48:29.686Z,17.05
2022-12-31T17:50:59.247Z,13.20
2022-12-31T17:53:26.514Z,13.18
2022-12-31T17:55:56.663Z,11.27
2022-12-31T17:58:36.387Z,11.83
2022-12-31T18:01:07.172Z,14.80
2022-12-31T18:03:34.033Z,12.88
2022-12-31T18:06:00.673Z,11.60
2022-12-31T18:08:27.160Z,13.70
2022-12-31T18:10:54.277Z,15.43
2022-12-31T18:13:24.137Z,14.70
2022-12-31T18:15:51.028Z,13.05
2022-12-31T18:18:25.577Z,14.50
2022-12-31T18:21:24.414Z,11.32
2022-12-31T18:23:51.283Z,12.13
2022-12-31T18:26:21.138Z,10.77
2022-12-31T18:28:48.619Z,12.82
2022-12-31T18:31:27.487Z,17.33
2022-12-31T18:33:56.387Z,17.52
2022-12-31T18:36:24.023Z,12.43
2022-12-31T18:38:50.918Z,20.27
2022-12-31T18:41:24.325Z,16.00
2022-12-31T18:43:51.113Z,24.10
2022-12-31T18:46:19.651Z,16.73
2022-12-31T18:48:46.240Z,13.53
2022-12-31T18:51:31.126Z,11.63
2022-12-31T18:53:59.532Z,14.27
2022-12-31T18:56:26.322Z,12.77
2022-12-31T18:58:52.835Z,12.15
2022-12-31T19:01:35.232Z,12.33
2022-12-31T19:04:13.778Z,13.82
2022-12-31T19:06:40.495Z,14.05
2022-12-31T19:09:23.702Z,11.25
2022-12-31T19:11:53.845Z,11.77
2022-12-31T19:14:24.121Z,13.73
2022-12-31T19:16:52.084Z,12.55
2022-12-31T19:19:18.875Z,16.23
2022-12-31T19:21:46.323Z,14.10
2022-12-31T19:24:20.389Z,14.57
2022-12-31T19:26:47.619Z,17.10
2022-12-31T19:29:22.345Z,18.75
2022-12-31T19:31:49.222Z,17.60
2022-12-31T19:34:16.109Z,12.25
2022-12-31T19:36:44.265Z,12.63
2022-12-31T19:39:15.668Z,13.87
2022-12-31T19:41:43.488Z,12.40
2022-12-31T19:44:15.644Z,10.75
2022-12-31T19:46:42.204Z,15.88
2022-12-31T19:49:11.299Z,12.57
2022-12-31T19:51:37.855Z,10.37
2022-12-31T19:54:05.184Z,14.15
2022-12-31T19:56:32.000Z,14.05
2022-12-31T19:59:04.216Z,12.18
2022-12-31T20:01:30.907Z,11.82
2022-12-31T20:03:57.480Z,13.67
2022-12-31T20:06:23.989Z,9.82
2022-12-31T20:08:50.515Z,12.32
2022-12-31T20:11:20.106Z,12.55
2022-12-31T20:13:48.110Z,9.20
2022-12-31T20:16:17.161Z,10.63
2022-12-31T20:18:45.837Z,10.35
2022-12-31T20:21:18.706Z,10.95
2022-12-31T20:23:45.527Z,8.73
2022-12-31T20:26:12.482Z,11.23
2022-12-31T20:28:39.345Z,12.67
2022-12-31T20:31:11.359Z,11.23
2022-12-31T20:33:38.176Z,12.80
2022-12-31T20:36:06.852Z,13.32
2022-12-31T20:38:33.574Z,12.35
2022-12-31T20:41:12.312Z,12.00
2022-12-31T20:43:39.811Z,11.07
2022-12-31T20:46:16.311Z,9.98
2022-12-31T20:48:44.488Z,13.98
2022-12-31T20:51:11.908Z,9.23
2022-12-31T20:53:38.631Z,13.23
2022-12-31T20:56:07.234Z,9.20
2022-12-31T20:58:34.643Z,12.52
2022-12-31T21:01:01.611Z,10.90
2022-12-31T21:04:03.784Z,14.00
2022-12-31T21:06:15.863Z,12.50
2022-12-31T21:08:42.993Z,10.80
2022-12-31T21:11:28.310Z,8.90
2022-12-31T21:13:56.921Z,11.48
2022-12-31T21:16:23.927Z,9.98
2022-12-31T21:18:50.650Z,13.10
2022-12-31T21:21:17.338Z,8.82
2022-12-31T21:23:43.916Z,14.52
2022-12-31T21:26:10.531Z,16.58
2022-12-31T21:28:37.081Z,21.02
2022-12-31T21:31:06.680Z,14.30
2022-12-31T21:33:33.764Z,16.35
2022-12-31T21:36:04.556Z,11.73
2022-12-31T21:38:31.654Z,12.75
2022-12-31T21:41:03.009Z,13.85
2022-12-31T21:43:29.970Z,11.00
2022-12-31T21:46:01.990Z,13.05
2022-12-31T21:48:28.572Z,18.95
2022-12-31T21:51:05.510Z,16.30
2022-12-31T21:53:36.657Z,10.57
2022-12-31T21:56:10.508Z,13.37
2022-12-31T21:58:42.270Z,10.77
2022-12-31T22:01:35.599Z,12.40
2022-12-31T22:04:02.344Z,9.07
2022-12-31T22:06:28.963Z,14.65
2022-12-31T22:08:56.452Z,10.13
2022-12-31T22:11:26.389Z,13.38
2022-12-31T22:13:54.603Z,15.18
2022-12-31T22:16:22.696Z,15.27
2022-12-31T22:18:49.853Z,74.22
2022-12-31T22:21:20.261Z,13.37
2022-12-31T22:23:48.778Z,11.48
2022-12-31T22:26:16.943Z,11.25
2022-12-31T22:28:44.853Z,11.98
2022-12-31T22:31:17.358Z,10.68
2022-12-31T22:33:44.640Z,14.00
2022-12-31T22:36:16.386Z,15.05
2022-12-31T22:38:43.778Z,12.48
2022-12-31T22:41:21.039Z,15.23
2022-12-31T22:43:50.451Z,11.50
2022-12-31T22:46:22.619Z,14.40
2022-12-31T22:48:50.922Z,15.63
2022-12-31T22:51:18.514Z,12.23
2022-12-31T22:53:45.744Z,12.60
2022-12-31T22:56:14.605Z,15.05
2022-12-31T22:58:41.137Z,13.47
2022-12-31T23:01:14.489Z,16.10
2022-12-31T23:03:42.236Z,26.35
2022-12-31T23:06:08.928Z,147.07
2022-12-31T23:08:35.668Z,95.07
2022-12-31T23:11:11.405Z,105.70
2022-12-31T23:14:01.866Z,163.45
2022-12-31T23:16:48.422Z,121.85
2022-12-31T23:19:34.693Z,58.38
2022-12-31T23:22:20.177Z,62.35
2022-12-31T23:24:46.732Z,31.73
2022-12-31T23:27:13.266Z,65.47
2022-12-31T23:29:46.222Z,61.20
2022-12-31T23:32:15.774Z,49.08
2022-12-31T23:34:43.819Z,30.27
2022-12-31T23:37:11.082Z,34.50
2022-12-31T23:39:37.618Z,35.63
2022-12-31T23:42:04.422Z,24.35
2022-12-31T23:44:30.939Z,19.77
2022-12-31T23:46:57.424Z,24.73
2022-12-31T23:49:23.990Z,22.07
2022-12-31T23:51:50.459Z,25.70
2022-12-31T23:54:17.818Z,21.00
2022-12-31T23:56:44.499Z,15.65
2022-12-31T23:59:11.971Z,19.27
